Time;durP1;ratioP1;P1;durP2;ratioP2;P2;SDS_P1;SDS_P2;PMS_P1;PMS_P2;Temp;Humidity;BMP_temperature;BMP_pressure;BME280_temperature;BME280_humidity;BME280_pressure;Samples;Min_cycle;Max_cycle;Signal;HPM_P1;HPM_P2
2022/09/23 00:00:59;;;;;;;13.57;8.35;;;;;;;7.34;100.00;101702.53;5319728;27;20027;-81
2022/09/23 00:03:32;;;;;;;11.73;8.38;;;;;;;7.46;100.00;101708.00;5338951;27;20052;-81
2022/09/23 00:06:07;;;;;;;9.82;7.82;;;;;;;7.26;100.00;101696.91;5337198;27;20019;-81
2022/09/23 00:08:39;;;;;;;14.32;8.18;;;;;;;7.39;100.00;101704.91;5336818;27;20059;-81
2022/09/23 00:11:19;;;;;;;8.13;6.57;;;;;;;7.45;100.00;101709.81;5335673;27;20028;-81
2022/09/23 00:13:56;;;;;;;13.30;8.23;;;;;;;7.36;100.00;101689.19;5339851;27;20028;-81
2022/09/23 00:16:29;;;;;;;;;;;;;;;7.42;100.00;101709.19;5338440;27;20034;-81
2022/09/23 00:19:02;;;;;;;12.52;9.30;;;;;;;8.28;100.00;101703.38;5323753;27;20004;-81
2022/09/23 00:21:33;;;;;;;9.95;8.30;;;;;;;8.43;100.00;101710.31;5340423;27;20082;-81
2022/09/23 00:24:06;;;;;;;11.20;8.98;;;;;;;8.68;100.00;101688.16;5339627;27;20065;-81
2022/09/23 00:26:38;;;;;;;11.50;9.00;;;;;;;8.35;100.00;101702.00;5340067;27;20114;-81
2022/09/23 00:29:09;;;;;;;8.80;7.70;;;;;;;8.23;100.00;101678.94;5340502;27;20426;-81
2022/09/23 00:31:41;;;;;;;11.07;8.70;;;;;;;8.86;100.00;101691.28;5339076;27;20376;-81
2022/09/23 00:34:12;;;;;;;15.20;10.98;;;;;;;8.48;100.00;101688.72;5322534;27;20020;-81
2022/09/23 00:36:44;;;;;;;10.57;9.13;;;;;;;8.37;100.00;101686.78;5340036;27;20087;-81
2022/09/23 00:39:15;;;;;;;10.73;8.38;;;;;;;8.39;100.00;101662.75;5342697;27;20032;-81
2022/09/23 00:41:47;;;;;;;14.13;9.75;;;;;;;8.28;100.00;101677.63;5340715;27;20023;-81
2022/09/23 00:44:46;;;;;;;16.23;10.57;;;;;;;8.29;100.00;101686.44;5340834;27;20475;-81
2022/09/23 00:47:31;;;;;;;13.23;9.45;;;;;;;8.23;100.00;101678.94;5340345;27;20024;-81
2022/09/23 00:50:08;;;;;;;17.30;11.20;;;;;;;8.11;100.00;101676.16;5339062;27;20023;-81
2022/09/23 00:52:40;;;;;;;14.85;11.85;;;;;;;8.13;100.00;101674.25;5339890;27;20031;-81
2022/09/23 00:55:16;;;;;;;14.65;11.45;;;;;;;8.14;100.00;101669.78;5339128;27;20028;-81
2022/09/23 00:57:48;;;;;;;15.55;12.07;;;;;;;8.13;100.00;101668.94;5337838;27;20461;-81
2022/09/23 01:00:20;;;;;;;15.10;11.80;;;;;;;8.24;100.00;101685.91;5338202;27;20059;-81
2022/09/23 01:02:53;;;;;;;15.32;12.77;;;;;;;8.23;100.00;101684.25;5338961;27;20024;-81
2022/09/23 01:05:25;;;;;;;15.90;12.32;;;;;;;8.20;100.00;101673.81;5339944;27;20030;-81
2022/09/23 01:07:59;;;;;;;17.58;12.27;;;;;;;8.27;100.00;101673.25;5339988;27;20038;-81
2022/09/23 01:10:55;;;;;;;15.10;12.23;;;;;;;8.26;100.00;101681.38;5339432;27;20016;-81
2022/09/23 01:13:38;;;;;;;13.15;11.75;;;;;;;8.28;100.00;101679.47;5337965;27;20055;-79
2022/09/23 01:16:42;;;;;;;15.50;11.77;;;;;;;8.27;100.00;101675.09;5338586;27;20043;-79
2022/09/23 01:19:35;;;;;;;11.50;10.30;;;;;;;8.47;100.00;101676.41;5320631;27;20039;-81
2022/09/23 01:22:24;;;;;;;11.98;10.50;;;;;;;8.46;100.00;101680.00;5337551;27;20478;-81
2022/09/23 01:25:12;;;;;;;14.00;12.45;;;;;;;8.42;100.00;101674.03;5338719;27;20038;-79
2022/09/23 01:28:10;;;;;;;10.93;9.80;;;;;;;8.72;100.00;101677.31;5337811;27;20024;-79
2022/09/23 01:30:47;;;;;;;15.60;12.68;;;;;;;8.26;100.00;101665.44;5343343;27;20088;-79
2022/09/23 01:33:42;;;;;;;14.32;12.05;;;;;;;8.19;100.00;101656.16;5343135;27;20058;-81
2022/09/23 01:36:25;;;;;;;16.13;12.07;;;;;;;8.12;100.00;101666.38;5297090;27;20056;-79
2022/09/23 01:39:10;;;;;;;14.30;11.10;;;;;;;8.04;100.00;101664.25;5342802;27;20427;-79
2022/09/23 01:42:12;;;;;;;18.02;11.73;;;;;;;8.00;100.00;101659.25;5343778;27;20073;-81
2022/09/23 01:44:59;;;;;;;13.27;11.88;;;;;;;7.92;100.00;101650.03;5340657;27;20024;-81
2022/09/23 01:47:43;;;;;;;12.43;11.05;;;;;;;7.85;100.00;101653.19;5341200;27;20047;-80
2022/09/23 01:53:36;;;;;;;;;;;;;;;7.91;100.00;101655.44;5339357;27;20463;-81
2022/09/23 01:56:19;;;;;;;15.48;12.20;;;;;;;8.01;100.00;101650.31;5313625;27;19922;-80
2022/09/23 01:59:13;;;;;;;15.77;13.38;;;;;;;7.94;100.00;101658.72;5343033;27;20028;-81
2022/09/23 02:01:54;;;;;;;19.10;13.13;;;;;;;7.87;100.00;101660.09;5343340;27;20082;-81
2022/09/23 02:05:13;;;;;;;12.57;10.57;;;;;;;7.79;100.00;101650.97;5342353;27;20043;-81
2022/09/23 02:07:50;;;;;;;;;;;;;;;7.76;100.00;101659.97;5341817;27;20031;-78
2022/09/23 02:10:27;;;;;;;14.48;11.65;;;;;;;7.86;100.00;101653.06;5344324;27;19912;-79
2022/09/23 02:13:07;;;;;;;11.88;10.65;;;;;;;7.83;100.00;101653.28;5321703;27;20425;-81
2022/09/23 02:15:43;;;;;;;13.60;12.15;;;;;;;7.88;100.00;101655.63;5343680;27;20376;-81
2022/09/23 02:18:21;;;;;;;19.13;13.88;;;;;;;7.99;100.00;101644.25;5342598;27;20119;-79
2022/09/23 02:20:58;;;;;;;16.73;13.57;;;;;;;8.37;100.00;101652.22;5340736;27;20733;-80
2022/09/23 02:23:33;;;;;;;;;;;;;;;8.11;100.00;101646.06;5323050;27;20031;-80
2022/09/23 02:26:15;;;;;;;15.23;11.77;;;;;;;8.35;100.00;101643.50;5343342;27;19918;-80
2022/09/23 02:28:50;;;;;;;17.13;14.80;;;;;;;8.39;100.00;101639.66;5311819;27;20031;-80
2022/09/23 02:31:44;;;;;;;19.38;15.00;;;;;;;8.37;100.00;101632.78;5324558;27;20477;-80
2022/09/23 02:34:27;;;;;;;15.90;14.20;;;;;;;8.29;100.00;101635.94;5342433;27;20472;-80
2022/09/23 02:37:27;;;;;;;17.33;13.43;;;;;;;8.26;100.00;101625.56;5343305;27;20047;-79
2022/09/23 02:40:15;;;;;;;16.38;13.48;;;;;;;8.16;100.00;101628.00;5338843;27;20027;-80
2022/09/23 02:42:59;;;;;;;16.20;13.18;;;;;;;8.09;100.00;101619.59;5341496;27;20169;-80
2022/09/23 02:45:30;;;;;;;15.70;12.15;;;;;;;7.97;100.00;101611.66;5341369;27;20390;-80
2022/09/23 02:48:08;;;;;;;13.18;10.95;;;;;;;8.01;100.00;101616.66;5322710;27;20024;-80
2022/09/23 02:50:39;;;;;;;15.07;12.55;;;;;;;7.91;100.00;101605.81;5340122;27;20507;-80
2022/09/23 02:53:10;;;;;;;14.63;13.13;;;;;;;7.86;100.00;101602.63;5340242;27;20031;-80
2022/09/23 02:55:42;;;;;;;16.88;13.50;;;;;;;7.83;100.00;101608.13;5340911;27;20027;-80
2022/09/23 02:58:13;;;;;;;15.82;12.77;;;;;;;7.92;100.00;101606.63;5341190;27;20435;-80
2022/09/23 03:01:14;;;;;;;15.85;12.13;;;;;;;8.17;100.00;101610.25;5343084;27;20107;-80
2022/09/23 03:04:05;;;;;;;16.05;14.13;;;;;;;8.04;100.00;101597.81;5338481;27;20158;-80
2022/09/23 03:06:58;;;;;;;15.18;12.73;;;;;;;8.33;100.00;101605.56;5338354;27;20028;-80
2022/09/23 03:10:00;;;;;;;14.98;13.40;;;;;;;7.91;100.00;101565.94;5321525;27;20115;-80
2022/09/23 03:13:12;;;;;;;17.05;13.75;;;;;;;7.91;100.00;101595.19;5341254;27;20927;-80
2022/09/23 03:15:59;;;;;;;13.40;12.00;;;;;;;7.91;100.00;101587.19;5338537;27;20042;-80
2022/09/23 03:18:34;;;;;;;18.95;12.52;;;;;;;7.76;100.00;101574.97;5331347;27;20081;-80
2022/09/23 03:21:41;;;;;;;14.05;11.90;;;;;;;7.85;100.00;101589.44;5320434;27;20035;-80
2022/09/23 03:24:14;;;;;;;13.20;11.80;;;;;;;7.97;100.00;101588.56;5318065;27;20028;-80
2022/09/23 03:26:47;;;;;;;15.32;12.05;;;;;;;8.11;100.00;101592.94;5320432;27;20023;-80
2022/09/23 03:29:20;;;;;;;13.55;11.50;;;;;;;8.28;100.00;101576.63;5338679;27;20035;-80
2022/09/23 03:31:53;;;;;;;15.95;11.85;;;;;;;8.39;100.00;101588.31;5339728;27;20095;-80
2022/09/23 03:34:29;;;;;;;11.57;10.45;;;;;;;8.29;100.00;101581.00;5340758;27;20020;-80
2022/09/23 03:37:16;;;;;;;11.47;10.37;;;;;;;8.17;100.00;101581.00;5342067;27;20044;-80
2022/09/23 03:39:56;;;;;;;11.88;10.13;;;;;;;8.46;100.00;101592.25;5337126;27;20055;-79
2022/09/23 03:42:30;;;;;;;12.25;10.05;;;;;;;8.57;100.00;101599.47;5340670;27;20036;-80
2022/09/23 03:45:10;;;;;;;12.60;11.30;;;;;;;8.27;100.00;101595.34;5337649;27;20016;-80
2022/09/23 03:47:42;;;;;;;10.77;9.68;;;;;;;8.39;100.00;101591.81;5306944;27;20035;-80
2022/09/23 03:50:14;;;;;;;10.57;9.55;;;;;;;7.98;100.00;101587.63;5340781;27;20030;-80
2022/09/23 03:52:47;;;;;;;11.73;9.10;;;;;;;8.11;100.00;101580.47;5338412;27;20485;-79
2022/09/23 03:55:19;;;;;;;11.85;10.57;;;;;;;7.65;100.00;101582.84;5338524;27;20110;-80
2022/09/23 03:57:50;;;;;;;12.70;10.80;;;;;;;7.43;100.00;101572.84;5340921;27;20496;-80
2022/09/23 04:00:22;;;;;;;13.82;10.70;;;;;;;7.78;100.00;101577.53;5339890;27;20031;-79
2022/09/23 04:02:53;;;;;;;14.43;11.15;;;;;;;7.82;100.00;101585.19;5340854;27;20055;-80
2022/09/23 04:05:25;;;;;;;12.38;10.68;;;;;;;7.83;100.00;101576.25;5340084;27;20027;-79
2022/09/23 04:07:56;;;;;;;11.88;10.18;;;;;;;7.95;100.00;101579.88;5314939;27;20635;-79
2022/09/23 04:10:27;;;;;;;13.50;11.25;;;;;;;7.95;100.00;101572.75;5321628;27;20065;-80
2022/09/23 04:12:58;;;;;;;10.52;9.43;;;;;;;7.85;100.00;101579.66;5341858;27;20047;-80
2022/09/23 04:15:30;;;;;;;13.13;10.00;;;;;;;7.79;100.00;101569.47;5337312;27;20145;-80
2022/09/23 04:18:02;;;;;;;13.45;11.82;;;;;;;7.87;100.00;101574.22;5339889;27;20530;-80
2022/09/23 04:20:33;;;;;;;14.95;12.32;;;;;;;7.82;100.00;101576.34;5318015;27;20484;-79
2022/09/23 04:23:05;;;;;;;12.73;11.40;;;;;;;7.78;100.00;101567.75;5339149;27;20032;-80
2022/09/23 04:25:44;;;;;;;13.32;11.85;;;;;;;7.35;100.00;101574.22;5340176;27;20039;-80
2022/09/23 04:28:15;;;;;;;15.23;11.52;;;;;;;7.34;100.00;101576.97;5322196;27;20063;-80
2022/09/23 04:30:47;;;;;;;18.85;14.50;;;;;;;7.24;100.00;101579.41;5339841;27;20098;-80
2022/09/23 04:33:19;;;;;;;15.70;13.52;;;;;;;7.18;100.00;101577.16;5341816;27;20354;-81
2022/09/23 04:35:51;;;;;;;15.32;12.40;;;;;;;7.03;100.00;101571.06;5338581;27;20031;-80
2022/09/23 04:38:22;;;;;;;15.50;12.00;;;;;;;6.91;100.00;101571.88;5339099;27;20397;-80
2022/09/23 04:40:53;;;;;;;15.77;12.88;;;;;;;6.91;100.00;101572.72;5339339;27;20051;-80
2022/09/23 04:43:25;;;;;;;18.75;14.30;;;;;;;6.89;100.00;101571.09;5338948;27;20055;-80
2022/09/23 04:46:01;;;;;;;12.10;10.35;;;;;;;6.94;100.00;101561.03;5337700;27;20123;-80
2022/09/23 04:48:34;;;;;;;12.25;10.40;;;;;;;7.00;100.00;101571.25;5318630;27;20109;-80
2022/09/23 04:51:09;;;;;;;11.75;10.55;;;;;;;7.09;100.00;101568.00;5314704;27;20115;-80
2022/09/23 04:53:43;;;;;;;15.13;13.02;;;;;;;7.24;100.00;101562.59;5334010;27;20031;-80
2022/09/23 04:56:22;;;;;;;22.65;14.73;;;;;;;7.30;100.00;101567.53;5316527;27;20516;-80
2022/09/23 04:58:55;;;;;;;23.17;16.50;;;;;;;7.41;100.00;101561.47;5335909;27;20366;-80
2022/09/23 05:01:29;;;;;;;17.45;13.18;;;;;;;7.41;100.00;101556.16;5334778;27;20028;-81
2022/09/23 05:04:07;;;;;;;13.52;10.65;;;;;;;7.40;100.00;101552.69;5340942;27;20164;-80
2022/09/23 05:06:38;;;;;;;19.40;15.85;;;;;;;7.31;100.00;101555.94;5343369;27;20023;-80
2022/09/23 05:09:14;;;;;;;16.70;12.00;;;;;;;7.23;100.00;101556.47;5324347;27;20023;-80
2022/09/23 05:11:45;;;;;;;21.53;15.83;;;;;;;7.15;100.00;101558.78;5341293;27;20091;-80
2022/09/23 05:14:17;;;;;;;17.70;15.25;;;;;;;7.13;100.00;101558.88;5342289;27;20026;-80
2022/09/23 05:16:48;;;;;;;14.88;10.93;;;;;;;7.16;100.00;101548.06;5325848;27;20088;-80
2022/09/23 05:19:20;;;;;;;13.77;12.27;;;;;;;7.23;100.00;101543.19;5341255;27;20119;-80
2022/09/23 05:21:51;;;;;;;17.05;13.50;;;;;;;7.37;100.00;101556.38;5339482;27;20058;-80
2022/09/23 05:24:23;;;;;;;18.40;11.98;;;;;;;7.39;100.00;101567.72;5341754;27;20782;-80
2022/09/23 05:26:55;;;;;;;15.63;12.60;;;;;;;7.37;100.00;101567.00;5341353;27;20118;-80
2022/09/23 05:29:27;;;;;;;15.43;13.15;;;;;;;7.32;100.00;101569.09;5339178;27;20042;-80
2022/09/23 05:32:00;;;;;;;18.50;12.75;;;;;;;7.38;100.00;101574.00;5321515;27;20093;-80
2022/09/23 05:34:31;;;;;;;20.13;11.93;;;;;;;7.45;100.00;101574.44;5336460;27;20076;-80
2022/09/23 05:37:04;;;;;;;25.05;13.57;;;;;;;7.37;100.00;101582.91;5346383;27;20032;-80
2022/09/23 05:39:35;;;;;;;18.90;13.32;;;;;;;7.38;100.00;101575.78;5345762;27;20027;-80
2022/09/23 05:42:07;;;;;;;22.35;13.25;;;;;;;7.44;100.00;101582.50;5338436;27;20051;-80
2022/09/23 05:44:38;;;;;;;14.07;10.43;;;;;;;7.67;100.00;101571.16;5340046;27;20082;-80
2022/09/23 05:47:10;;;;;;;14.98;12.75;;;;;;;7.88;100.00;101570.63;5341704;27;20028;-80
2022/09/23 05:49:41;;;;;;;20.80;12.65;;;;;;;7.99;100.00;101570.72;5315099;27;20028;-80
2022/09/23 05:52:12;;;;;;;16.05;13.05;;;;;;;7.95;100.00;101559.47;5324624;27;20159;-80
2022/09/23 05:54:44;;;;;;;17.88;13.07;;;;;;;8.10;100.00;101575.31;5318681;27;20393;-81
2022/09/23 05:57:18;;;;;;;18.58;11.73;;;;;;;8.42;100.00;101591.63;5324501;27;20032;-80
2022/09/23 05:59:50;;;;;;;18.50;12.13;;;;;;;8.57;100.00;101589.66;5341735;27;20039;-81
2022/09/23 06:02:21;;;;;;;19.02;11.68;;;;;;;8.52;100.00;101573.22;5320375;27;20346;-81
2022/09/23 06:04:52;;;;;;;17.75;11.63;;;;;;;8.50;100.00;101573.31;5341905;27;20511;-80
2022/09/23 06:07:24;;;;;;;20.65;11.93;;;;;;;8.61;100.00;101585.84;5320708;27;20034;-80
2022/09/23 06:09:55;;;;;;;20.17;11.80;;;;;;;8.74;100.00;101585.78;5339780;27;20037;-80
2022/09/23 06:12:27;;;;;;;22.70;12.88;;;;;;;8.79;100.00;101585.47;5341547;27;20175;-80
2022/09/23 06:14:59;;;;;;;17.70;10.18;;;;;;;8.92;100.00;101572.09;5339518;27;20027;-80
2022/09/23 06:17:30;;;;;;;15.68;10.25;;;;;;;9.02;100.00;101586.41;5339541;27;20050;-80
2022/09/23 06:20:02;;;;;;;15.73;10.40;;;;;;;8.94;100.00;101560.38;5338309;27;20389;-80
2022/09/23 06:22:34;;;;;;;18.33;10.10;;;;;;;9.10;100.00;101584.03;5320989;27;20046;-80
2022/09/23 06:25:05;;;;;;;14.88;9.80;;;;;;;9.11;100.00;101580.41;5323525;27;20039;-80
2022/09/23 06:27:37;;;;;;;24.60;11.20;;;;;;;9.22;100.00;101577.78;5337511;27;20119;-79
2022/09/23 06:30:09;;;;;;;23.23;10.25;;;;;;;9.27;100.00;101562.31;5335224;27;20027;-80
2022/09/23 06:32:41;;;;;;;15.70;9.45;;;;;;;9.25;100.00;101545.59;5340142;27;20665;-80
2022/09/23 06:35:12;;;;;;;14.15;9.32;;;;;;;9.36;100.00;101552.78;5343951;27;20055;-80
2022/09/23 06:37:44;;;;;;;19.98;10.15;;;;;;;9.67;100.00;101568.22;5342572;27;20126;-79
2022/09/23 06:40:15;;;;;;;14.80;9.00;;;;;;;9.58;100.00;101567.09;5338542;27;20031;-79
2022/09/23 06:42:47;;;;;;;15.85;9.45;;;;;;;9.58;100.00;101570.63;5321430;27;20055;-80
2022/09/23 06:45:19;;;;;;;13.55;9.25;;;;;;;9.53;100.00;101553.28;5333359;27;20051;-80
2022/09/23 06:47:57;;;;;;;14.00;9.35;;;;;;;9.63;100.00;101559.63;5347299;27;20027;-80
2022/09/23 06:50:29;;;;;;;19.98;8.82;;;;;;;9.82;100.00;101572.34;5347310;27;20110;-80
2022/09/23 06:53:03;;;;;;;11.40;8.73;;;;;;;9.83;100.00;101563.38;5347600;27;20024;-80
2022/09/23 06:55:34;;;;;;;16.08;9.10;;;;;;;9.90;100.00;101561.94;5324165;28;20065;-80
2022/09/23 06:58:07;;;;;;;13.30;8.43;;;;;;;9.97;100.00;101551.63;5338122;28;20032;-80
2022/09/23 07:00:38;;;;;;;13.60;8.70;;;;;;;10.04;100.00;101552.84;5337464;27;20030;-80
2022/09/23 07:03:10;;;;;;;14.07;8.90;;;;;;;10.18;100.00;101559.75;5347751;27;20464;-80
2022/09/23 07:05:42;;;;;;;14.90;8.30;;;;;;;10.12;100.00;101537.09;5347353;27;20034;-80
2022/09/23 07:08:13;;;;;;;17.60;8.18;;;;;;;10.28;100.00;101563.38;5346665;27;20023;-80
2022/09/23 07:10:52;;;;;;;14.85;8.57;;;;;;;10.29;100.00;101546.41;5347448;27;20028;-80
2022/09/23 07:13:25;;;;;;;13.93;8.70;;;;;;;10.47;100.00;101553.94;5346747;27;20473;-80
2022/09/23 07:15:57;;;;;;;19.50;8.68;;;;;;;10.63;100.00;101561.53;5347442;27;20047;-80
2022/09/23 07:18:31;;;;;;;11.65;9.27;;;;;;;10.72;100.00;101548.28;5346833;27;20043;-80
2022/09/23 07:21:14;;;;;;;11.30;7.97;;;;;;;10.90;100.00;101539.72;5346784;27;20015;-80
2022/09/23 07:23:48;;;;;;;10.95;7.43;;;;;;;11.14;100.00;101547.50;5347426;27;20019;-80
2022/09/23 07:26:21;;;;;;;15.07;8.25;;;;;;;11.30;100.00;101533.72;5346379;27;20030;-80
2022/09/23 07:28:55;;;;;;;11.13;7.63;;;;;;;11.53;100.00;101532.59;5346992;27;20034;-80
2022/09/23 07:31:26;;;;;;;11.55;7.70;;;;;;;11.80;100.00;101547.22;5345766;27;20020;-81
2022/09/23 07:33:59;;;;;;;13.50;6.75;;;;;;;11.93;100.00;101547.03;5346712;27;20369;-80
2022/09/23 07:36:31;;;;;;;21.55;8.02;;;;;;;12.09;100.00;101551.88;5347047;27;20023;-80
2022/09/23 07:39:04;;;;;;;11.93;7.75;;;;;;;12.31;100.00;101561.53;5327652;27;20027;-80
2022/09/23 07:41:35;;;;;;;10.32;7.32;;;;;;;12.47;100.00;101544.97;5346876;27;20024;-80
2022/09/23 07:44:10;;;;;;;10.68;7.40;;;;;;;12.71;100.00;101554.41;5346103;27;20467;-80
2022/09/23 07:46:42;;;;;;;10.35;7.15;;;;;;;13.14;100.00;101547.81;5328539;27;20115;-80
2022/09/23 07:49:13;;;;;;;14.45;7.28;;;;;;;13.54;100.00;101549.50;5346371;27;20111;-81
2022/09/23 07:51:45;;;;;;;10.95;7.30;;;;;;;13.87;100.00;101549.97;5346904;27;20073;-80
2022/09/23 07:54:19;;;;;;;10.32;6.55;;;;;;;14.09;100.00;101551.41;5346451;27;20091;-80
2022/09/23 07:56:51;;;;;;;12.95;6.40;;;;;;;14.05;100.00;101526.72;5346969;27;20114;-80
2022/09/23 07:59:22;;;;;;;12.23;7.05;;;;;;;14.42;100.00;101549.97;5345414;27;20111;-80
2022/09/23 08:01:56;;;;;;;9.90;5.68;;;;;;;14.52;100.00;101529.28;5325391;28;20601;-80
2022/09/23 08:04:30;;;;;;;9.45;6.43;;;;;;;14.83;100.00;101560.31;5324393;28;20040;-80
2022/09/23 08:07:04;;;;;;;9.73;6.40;;;;;;;14.96;100.00;101562.66;5325023;28;20147;-80
2022/09/23 08:09:40;;;;;;;9.43;6.43;;;;;;;15.09;100.00;101555.88;5325196;28;20034;-80
2022/09/23 08:12:15;;;;;;;12.55;6.70;;;;;;;15.09;100.00;101547.81;5325027;28;20032;-80
2022/09/23 08:14:46;;;;;;;13.40;6.65;;;;;;;15.22;100.00;101554.66;5324646;27;20024;-80
2022/09/23 08:17:18;;;;;;;12.48;6.22;;;;;;;15.44;100.00;101547.91;5345501;27;20039;-80
2022/09/23 08:19:49;;;;;;;11.13;7.10;;;;;;;15.32;100.00;101555.38;5328044;27;20472;-80
2022/09/23 08:22:20;;;;;;;11.68;6.35;;;;;;;15.56;100.00;101557.41;5346054;27;20457;-80
2022/09/23 08:24:55;;;;;;;8.93;6.25;;;;;;;15.41;100.00;101532.94;5346363;27;20118;-80
2022/09/23 08:27:27;;;;;;;28.85;6.55;;;;;;;15.93;100.00;101555.47;5326985;27;20516;-80
2022/09/23 08:29:59;;;;;;;17.75;7.22;;;;;;;16.41;100.00;101556.69;5344960;27;20015;-80
2022/09/23 08:32:30;;;;;;;12.15;6.47;;;;;;;16.41;100.00;101541.38;5345957;27;20417;-80
2022/09/23 08:35:02;;;;;;;10.40;5.90;;;;;;;16.59;100.00;101548.50;5345654;27;20393;-80
2022/09/23 08:37:33;;;;;;;17.05;7.07;;;;;;;16.83;100.00;101553.09;5327788;27;20074;-80
2022/09/23 08:40:05;;;;;;;16.23;6.80;;;;;;;16.86;100.00;101543.84;5346255;27;20019;-80
2022/09/23 08:42:40;;;;;;;13.13;5.88;;;;;;;16.81;100.00;101557.78;5346195;27;20027;-80
2022/09/23 08:45:19;;;;;;;12.02;6.40;;;;;;;17.26;100.00;101559.19;5345627;27;20015;-80
2022/09/23 08:48:11;;;;;;;7.97;6.03;;;;;;;17.45;100.00;101551.78;5346424;27;20537;-80
2022/09/23 08:50:50;;;;;;;9.35;5.63;;;;;;;17.73;100.00;101552.22;5346221;27;20016;-80
2022/09/23 08:53:30;;;;;;;13.13;5.45;;;;;;;18.17;100.00;101543.66;5346258;27;20385;-80
2022/09/23 08:56:22;;;;;;;16.58;5.28;;;;;;;18.49;100.00;101553.44;5345927;27;20030;-80
2022/09/23 08:58:57;;;;;;;8.82;5.35;;;;;;;18.45;100.00;101552.13;5346153;27;20028;-80
2022/09/23 09:01:51;;;;;;;9.75;5.03;;;;;;;18.64;100.00;101553.53;5345858;27;20099;-80
2022/09/23 09:04:34;;;;;;;9.13;5.30;;;;;;;18.87;100.00;101547.34;5320368;27;20422;-80
2022/09/23 09:07:05;;;;;;;10.52;5.07;;;;;;;19.14;100.00;101548.63;5303068;28;20029;-80
2022/09/23 09:10:06;;;;;;;6.20;4.70;;;;;;;19.49;100.00;101535.47;5303566;28;20122;-80
2022/09/23 09:12:48;;;;;;;6.82;4.63;;;;;;;19.85;100.00;101544.78;5302312;28;20111;-80
2022/09/23 09:15:26;;;;;;;7.07;4.60;;;;;;;20.02;100.00;101544.41;5303160;28;20096;-80
2022/09/23 09:18:16;;;;;;;6.40;4.00;;;;;;;20.69;100.00;101541.69;5318367;28;20040;-80
2022/09/23 09:21:11;;;;;;;11.52;4.35;;;;;;;21.02;100.00;101525.75;5324396;28;20090;-80
2022/09/23 09:23:52;;;;;;;9.48;4.50;;;;;;;20.36;100.00;101531.28;5324027;28;20131;-80
2022/09/23 09:26:25;;;;;;;7.40;4.15;;;;;;;20.21;100.00;101540.28;5324540;28;20016;-80
2022/09/23 09:29:12;;;;;;;10.60;4.90;;;;;;;20.00;100.00;101538.34;5324609;28;20012;-80
2022/09/23 09:31:44;;;;;;;;;;;;;;;21.37;100.00;101535.81;5322941;28;20039;-80
2022/09/23 09:34:31;;;;;;;7.32;4.20;;;;;;;21.06;100.00;101542.47;5323382;28;19920;-80
2022/09/23 09:37:05;;;;;;;;;;;;;;;22.48;100.00;101527.69;5324317;28;20028;-80
2022/09/23 09:39:36;;;;;;;8.75;4.22;;;;;;;22.10;100.00;101526.25;5324850;28;20368;-80
2022/09/23 09:42:19;;;;;;;7.07;4.13;;;;;;;22.40;100.00;101525.16;5323813;28;20027;-81
2022/09/23 09:44:57;;;;;;;4.88;3.67;;;;;;;22.47;100.00;101526.00;5312906;28;20466;-80
2022/09/23 09:47:29;;;;;;;7.93;3.35;;;;;;;22.14;100.00;101526.69;5324505;28;20028;-80
2022/09/23 09:50:08;;;;;;;7.68;3.80;;;;;;;23.14;100.00;101507.94;5324708;27;20488;-81
2022/09/23 09:52:42;;;;;;;5.72;3.63;;;;;;;23.44;100.00;101504.75;5327813;28;20111;-80
2022/09/23 09:55:13;;;;;;;7.20;3.90;;;;;;;24.05;100.00;101517.16;5328272;28;20028;-81
2022/09/23 09:58:00;;;;;;;8.65;4.40;;;;;;;24.26;100.00;101517.91;5327880;28;20036;-81
2022/09/23 10:00:31;;;;;;;6.82;3.13;;;;;;;23.67;100.00;101520.63;5325276;28;20042;-80
2022/09/23 10:03:17;;;;;;;7.80;3.95;;;;;;;23.77;100.00;101525.63;5330822;27;20143;-81
2022/09/23 10:05:51;;;;;;;8.73;3.70;;;;;;;23.12;100.00;101520.06;5348952;27;20031;-81
2022/09/23 10:08:34;;;;;;;5.43;3.78;;;;;;;22.98;100.00;101514.59;5348923;27;20031;-80
2022/09/23 10:11:16;;;;;;;5.50;3.50;;;;;;;22.92;100.00;101514.59;5349069;27;20020;-80
2022/09/23 10:14:04;;;;;;;9.90;4.15;;;;;;;22.60;100.00;101506.19;5348382;27;20023;-80
2022/09/23 10:16:36;;;;;;;8.05;4.07;;;;;;;21.92;100.00;101501.53;5347140;27;20081;-80
2022/09/23 10:19:16;;;;;;;13.95;4.68;;;;;;;21.69;100.00;101518.13;5349243;27;20024;-80
2022/09/23 10:21:55;;;;;;;11.32;4.65;;;;;;;21.54;100.00;101493.78;5346938;27;20024;-80
2022/09/23 10:24:31;;;;;;;6.80;4.15;;;;;;;21.53;100.00;101509.25;5348635;27;20027;-80
2022/09/23 10:27:08;;;;;;;6.50;3.95;;;;;;;21.83;100.00;101486.47;5348300;27;20034;-80
2022/09/23 10:29:47;;;;;;;6.80;4.00;;;;;;;22.36;100.00;101492.09;5346015;27;20028;-80
2022/09/23 10:32:22;;;;;;;14.30;4.55;;;;;;;22.19;100.00;101501.63;5344137;27;20027;-80
2022/09/23 10:35:06;;;;;;;10.00;4.43;;;;;;;21.87;100.00;101495.88;5334290;27;20038;-80
2022/09/23 10:37:37;;;;;;;7.55;3.70;;;;;;;21.24;100.00;101501.28;5345552;27;20032;-80
2022/09/23 10:46:38;;;;;;;5.13;3.50;;;;;;;21.13;100.00;101491.81;5342526;27;20040;-80
2022/09/23 10:49:30;;;;;;;6.47;3.33;;;;;;;21.25;100.00;101500.25;5347565;27;20050;-80
2022/09/23 10:52:17;;;;;;;9.57;4.00;;;;;;;20.93;100.00;101507.91;5347963;27;20059;-80
2022/09/23 10:55:10;;;;;;;;;;;;;;;21.60;100.00;101495.72;5348516;27;20019;-80
2022/09/23 10:58:03;;;;;;;10.57;4.45;;;;;;;21.00;100.00;101499.84;5348221;27;19911;-80
2022/09/23 11:01:06;;;;;;;6.95;4.30;;;;;;;21.28;100.00;101492.56;5328999;27;20465;-80
2022/09/23 11:04:12;;;;;;;7.60;4.80;;;;;;;21.46;100.00;101486.66;5328729;27;20379;-80
2022/09/23 11:06:59;;;;;;;7.60;5.13;;;;;;;21.27;100.00;101490.06;5347457;27;20015;-80
2022/09/23 11:09:42;;;;;;;9.15;5.18;;;;;;;21.29;100.00;101483.38;5348293;27;20102;-80
2022/09/23 11:12:54;;;;;;;8.13;5.53;;;;;;;20.95;100.00;101495.84;5347549;27;20027;-80
2022/09/23 11:15:33;;;;;;;8.93;5.45;;;;;;;20.77;100.00;101498.16;5347169;27;20381;-80
2022/09/23 11:18:17;;;;;;;6.40;4.20;;;;;;;21.00;100.00;101483.56;5328315;27;20032;-80
2022/09/23 11:20:51;;;;;;;10.65;4.05;;;;;;;21.20;100.00;101481.84;5347558;27;20050;-80
2022/09/23 11:23:33;;;;;;;7.68;4.20;;;;;;;21.48;100.00;101486.47;5347040;27;20532;-80
2022/09/23 11:26:34;;;;;;;12.13;4.38;;;;;;;21.23;100.00;101486.03;5347181;27;20624;-80
2022/09/23 11:29:27;;;;;;;10.35;3.95;;;;;;;21.25;100.00;101479.41;5337408;27;20047;-80
2022/09/23 11:32:16;;;;;;;7.22;4.00;;;;;;;21.37;100.00;101484.25;5347469;27;20022;-80
2022/09/23 11:34:55;;;;;;;7.20;4.45;;;;;;;21.16;100.00;101483.31;5347387;27;20020;-80
2022/09/23 11:37:31;;;;;;;7.95;4.10;;;;;;;21.20;100.00;101475.59;5347231;27;20063;-80
2022/09/23 11:40:14;;;;;;;8.60;3.92;;;;;;;21.11;100.00;101473.03;5338733;27;20043;-80
2022/09/23 11:42:58;;;;;;;7.32;3.58;;;;;;;20.99;100.00;101457.50;5338819;27;20444;-80
2022/09/23 11:45:35;;;;;;;6.10;4.30;;;;;;;21.00;100.00;101470.84;5333248;27;20497;-80
2022/09/23 11:48:19;;;;;;;4.93;3.47;;;;;;;21.45;100.00;101467.84;5327896;27;20027;-80
2022/09/23 11:51:04;;;;;;;6.53;3.50;;;;;;;21.49;100.00;101453.69;5345451;27;20045;-80
2022/09/23 11:53:43;;;;;;;7.80;3.45;;;;;;;21.84;100.00;101459.06;5345142;27;20035;-80
2022/09/23 11:56:22;;;;;;;9.80;3.45;;;;;;;22.98;100.00;101456.63;5346043;27;20412;-81
2022/09/23 11:59:01;;;;;;;6.25;3.10;;;;;;;23.28;100.00;101454.34;5345090;27;20081;-80
2022/09/23 12:01:41;;;;;;;5.28;2.65;;;;;;;24.30;96.32;101460.03;5326785;27;20031;-81
2022/09/23 12:04:22;;;;;;;9.48;2.70;;;;;;;24.03;94.24;101455.78;5345429;27;20545;-81
2022/09/23 12:06:59;;;;;;;19.10;3.13;;;;;;;23.25;99.13;101454.75;5328398;27;20015;-80
2022/09/23 12:10:00;;;;;;;6.90;2.67;;;;;;;22.27;100.00;101453.41;5340027;27;20142;-80
2022/09/23 12:12:38;;;;;;;10.45;3.30;;;;;;;21.17;100.00;101452.41;5337022;27;20039;-80